Time;durP1;ratioP1;P1;durP2;ratioP2;P2;SDS_P1;SDS_P2;PMS_P1;PMS_P2;Temp;Humidity;BMP_temperature;BMP_pressure;BME280_temperature;BME280_humidity;BME280_pressure;Samples;Min_cycle;Max_cycle;Signal;HPM_P1;HPM_P2
2021/10/20 00:01:13;;;;;;;6.85;5.22;;;;;;;15.05;96.48;100631.22;5021965;28;20113;-88
2021/10/20 00:03:39;;;;;;;10.10;5.53;;;;;;;15.05;96.07;100632.03;4990014;28;20050;-88
2021/10/20 00:06:05;;;;;;;9.05;5.45;;;;;;;15.04;96.08;100613.31;4970706;28;20049;-87
2021/10/20 00:08:30;;;;;;;8.98;5.32;;;;;;;15.01;96.20;100609.13;4982117;28;20151;-87
2021/10/20 00:10:56;;;;;;;7.03;5.05;;;;;;;14.99;95.88;100600.41;4989133;28;20056;-87
2021/10/20 00:13:21;;;;;;;8.05;4.95;;;;;;;14.98;96.15;100608.72;4967648;28;20141;-87
2021/10/20 00:15:47;;;;;;;6.95;5.13;;;;;;;14.94;95.81;100608.28;4995907;28;20038;-87
2021/10/20 00:18:13;;;;;;;7.28;4.85;;;;;;;14.92;95.91;100607.63;4977088;28;20046;-87
2021/10/20 00:20:39;;;;;;;7.38;5.07;;;;;;;14.88;95.86;100612.59;4985535;28;20055;-87
2021/10/20 00:23:05;;;;;;;7.07;4.50;;;;;;;14.86;95.85;100601.16;4997749;28;20060;-87
2021/10/20 00:25:31;;;;;;;7.45;5.47;;;;;;;14.83;96.05;100592.59;4989636;28;20100;-87
2021/10/20 00:27:57;;;;;;;7.65;4.80;;;;;;;14.79;95.94;100592.16;5000978;28;20448;-88
2021/10/20 00:30:23;;;;;;;9.52;5.25;;;;;;;14.79;95.86;100585.94;4990622;28;20060;-87
2021/10/20 00:32:48;;;;;;;9.48;4.95;;;;;;;14.76;95.55;100579.06;4999761;28;20034;-87
2021/10/20 00:35:14;;;;;;;7.95;5.05;;;;;;;14.75;95.54;100581.94;4986327;28;20042;-87
2021/10/20 00:37:39;;;;;;;6.50;4.70;;;;;;;14.71;95.70;100576.09;4986843;28;20070;-87
2021/10/20 00:40:07;;;;;;;7.28;4.72;;;;;;;14.71;95.65;100573.41;4994255;28;20046;-87
2021/10/20 00:42:33;;;;;;;8.85;5.13;;;;;;;14.69;95.47;100567.34;5000731;28;20049;-87
2021/10/20 00:45:00;;;;;;;9.18;4.72;;;;;;;14.69;95.43;100566.53;4985815;28;20064;-89
2021/10/20 00:47:26;;;;;;;8.32;5.28;;;;;;;14.68;95.19;100562.19;4982613;28;20074;-87
2021/10/20 00:49:53;;;;;;;7.95;5.20;;;;;;;14.65;95.16;100558.00;4996794;28;20042;-87
2021/10/20 00:52:21;;;;;;;5.80;4.10;;;;;;;14.64;95.13;100559.00;5000552;28;20100;-87
2021/10/20 00:54:47;;;;;;;7.18;4.53;;;;;;;14.64;94.77;100553.59;4988370;28;20056;-87
2021/10/20 00:57:13;;;;;;;9.93;4.85;;;;;;;14.63;94.72;100546.53;4982699;28;20721;-87
2021/10/20 00:59:39;;;;;;;7.50;4.75;;;;;;;14.61;94.54;100533.22;4980436;28;20042;-87
2021/10/20 01:02:07;;;;;;;7.90;4.88;;;;;;;14.61;94.50;100535.94;4994961;28;20766;-88
2021/10/20 01:04:33;;;;;;;8.05;4.60;;;;;;;14.63;94.17;100536.56;4991597;28;20038;-87
2021/10/20 01:06:58;;;;;;;9.90;4.95;;;;;;;14.62;94.08;100534.91;4984706;28;20258;-87
2021/10/20 01:09:25;;;;;;;6.65;4.35;;;;;;;14.64;93.82;100530.16;5000140;28;20044;-87
2021/10/20 01:11:50;;;;;;;8.13;4.88;;;;;;;14.66;93.49;100514.56;5003152;28;20060;-87
2021/10/20 01:14:16;;;;;;;7.28;4.82;;;;;;;14.67;93.38;100520.81;4994536;28;20087;-87
2021/10/20 01:16:42;;;;;;;7.88;4.38;;;;;;;14.68;93.07;100518.97;5000556;28;20404;-87
2021/10/20 01:19:08;;;;;;;9.32;4.75;;;;;;;14.68;92.88;100502.75;4968999;28;20042;-87
2021/10/20 01:21:34;;;;;;;6.47;4.50;;;;;;;14.71;92.56;100510.47;4991687;28;20049;-88
2021/10/20 01:24:00;;;;;;;6.57;4.20;;;;;;;14.70;92.13;100504.19;5007007;28;20088;-88
2021/10/20 01:26:26;;;;;;;6.80;4.10;;;;;;;14.72;92.04;100495.91;4989880;28;20041;-87
2021/10/20 01:28:52;;;;;;;6.63;4.10;;;;;;;14.76;91.66;100498.03;4984848;28;20120;-86
2021/10/20 01:31:18;;;;;;;6.75;4.10;;;;;;;14.76;91.63;100491.78;5003135;28;20500;-86
2021/10/20 01:33:43;;;;;;;7.40;4.40;;;;;;;14.80;91.31;100482.25;4989677;28;20449;-87
2021/10/20 01:36:09;;;;;;;8.90;4.55;;;;;;;14.81;91.05;100483.91;4991469;28;20042;-86
2021/10/20 01:38:35;;;;;;;6.88;4.47;;;;;;;14.84;90.70;100475.41;4991340;28;20133;-86
2021/10/20 01:41:00;;;;;;;6.60;4.25;;;;;;;14.85;90.81;100480.63;5003574;28;20124;-87
2021/10/20 01:43:53;;;;;;;8.80;3.97;;;;;;;14.88;90.24;100480.22;4989809;28;20401;-86
2021/10/20 01:46:20;;;;;;;8.40;4.25;;;;;;;14.89;89.66;100471.06;4979217;28;20038;-86
2021/10/20 01:48:46;;;;;;;6.43;4.03;;;;;;;14.90;89.58;100471.91;5005337;28;20104;-87
2021/10/20 01:51:13;;;;;;;6.07;3.75;;;;;;;14.91;89.18;100470.88;5003648;28;20034;-86
2021/10/20 01:53:39;;;;;;;5.93;3.72;;;;;;;14.92;89.37;100459.03;5006093;28;20124;-87
2021/10/20 01:56:09;;;;;;;7.00;3.80;;;;;;;14.93;89.16;100463.41;4999552;28;20042;-86
2021/10/20 01:58:34;;;;;;;6.65;4.15;;;;;;;14.94;89.11;100454.28;5002549;28;20497;-87
2021/10/20 02:01:00;;;;;;;6.20;3.95;;;;;;;14.95;88.91;100452.41;4984006;28;20070;-87
2021/10/20 02:03:26;;;;;;;7.03;3.92;;;;;;;14.95;88.66;100453.22;5005178;28;20393;-86
2021/10/20 02:05:55;;;;;;;6.47;3.90;;;;;;;14.96;88.50;100449.50;4988589;28;20042;-87
2021/10/20 02:08:22;;;;;;;7.68;3.95;;;;;;;14.96;88.42;100449.50;4989531;28;20048;-87
2021/10/20 02:10:48;;;;;;;6.18;3.70;;;;;;;14.97;88.38;100443.06;4987188;28;20042;-87
2021/10/20 02:13:14;;;;;;;9.35;4.00;;;;;;;14.95;88.41;100437.00;4993125;28;20096;-87
2021/10/20 02:15:39;;;;;;;7.10;4.30;;;;;;;14.96;88.46;100443.25;4992407;28;20448;-87
2021/10/20 02:18:05;;;;;;;7.95;4.45;;;;;;;14.95;88.27;100431.63;4999251;28;20040;-86
2021/10/20 02:20:30;;;;;;;6.40;3.80;;;;;;;14.94;88.26;100435.38;5001786;28;20073;-87
2021/10/20 02:22:56;;;;;;;5.82;3.70;;;;;;;14.95;88.27;100428.09;4986634;28;20532;-87
2021/10/20 02:25:22;;;;;;;14.38;4.05;;;;;;;14.92;88.31;100423.91;4986522;28;20041;-88
2021/10/20 02:27:49;;;;;;;8.32;4.13;;;;;;;14.93;88.02;100416.63;4988139;28;20062;-88
2021/10/20 02:30:14;;;;;;;6.30;3.85;;;;;;;14.91;88.08;100419.56;4984812;28;20073;-88
2021/10/20 02:32:40;;;;;;;6.70;3.80;;;;;;;14.91;87.88;100416.84;4965955;28;20089;-90
2021/10/20 02:35:08;;;;;;;7.32;3.88;;;;;;;14.91;87.84;100414.16;4911510;29;20069;-89
2021/10/20 02:37:34;;;;;;;6.57;3.63;;;;;;;14.90;88.00;100407.06;4943553;28;20461;-88
2021/10/20 02:40:00;;;;;;;7.35;3.83;;;;;;;14.91;88.00;100407.91;4925968;29;20054;-87
2021/10/20 02:42:25;;;;;;;5.32;3.30;;;;;;;14.91;87.91;100408.75;4927767;29;20494;-88
2021/10/20 02:44:51;;;;;;;5.82;3.28;;;;;;;14.91;87.58;100403.34;4929432;29;20047;-86
2021/10/20 02:47:16;;;;;;;5.90;3.53;;;;;;;14.91;87.69;100391.72;4939588;28;20410;-88
2021/10/20 02:49:42;;;;;;;5.47;3.20;;;;;;;14.89;87.53;100400.84;4943393;29;20052;-88
2021/10/20 02:52:07;;;;;;;6.28;3.50;;;;;;;14.89;87.56;100391.91;4936742;28;20036;-86
2021/10/20 02:54:32;;;;;;;6.30;3.47;;;;;;;14.88;87.55;100393.78;4929901;29;20046;-88
2021/10/20 02:56:58;;;;;;;6.22;3.53;;;;;;;14.87;87.67;100393.97;4935740;28;20142;-88
2021/10/20 02:59:23;;;;;;;6.18;3.33;;;;;;;14.85;87.94;100382.56;4927592;29;20061;-88
2021/10/20 03:01:49;;;;;;;6.85;3.53;;;;;;;14.84;87.79;100383.56;4926434;29;20498;-89
2021/10/20 03:04:14;;;;;;;7.82;3.47;;;;;;;14.80;87.81;100385.84;4927032;28;20049;-89
2021/10/20 03:06:40;;;;;;;7.18;3.75;;;;;;;14.80;88.02;100385.84;4987294;28;20128;-87
2021/10/20 03:09:05;;;;;;;5.18;3.35;;;;;;;14.81;88.07;100392.06;4989878;28;20500;-88
2021/10/20 03:11:31;;;;;;;5.95;3.42;;;;;;;14.81;88.07;100382.09;4983537;28;20046;-89
2021/10/20 03:13:57;;;;;;;7.80;3.58;;;;;;;14.79;87.90;100383.34;4970912;28;20631;-88
2021/10/20 03:16:23;;;;;;;6.47;3.63;;;;;;;14.78;88.09;100371.69;4991701;28;20465;-89
2021/10/20 03:18:48;;;;;;;6.07;3.50;;;;;;;14.77;88.09;100377.31;4997534;28;20109;-89
2021/10/20 03:21:14;;;;;;;4.63;3.20;;;;;;;14.78;88.18;100381.69;4996568;28;20045;-86
2021/10/20 03:23:39;;;;;;;6.13;3.55;;;;;;;14.77;88.03;100374.63;5006166;28;20042;-89
2021/10/20 03:26:05;;;;;;;6.40;3.33;;;;;;;14.77;87.91;100375.44;5025726;28;20049;-86
2021/10/20 03:28:30;;;;;;;5.93;3.63;;;;;;;14.77;87.97;100366.50;5031859;28;20045;-85
2021/10/20 03:30:55;;;;;;;6.45;3.20;;;;;;;14.77;88.07;100370.03;5000432;28;20034;-87
2021/10/20 03:33:21;;;;;;;8.02;3.60;;;;;;;14.78;87.71;100365.47;5005261;28;20050;-88
2021/10/20 03:35:46;;;;;;;4.93;3.40;;;;;;;14.78;87.95;100370.88;4997762;28;20038;-88
2021/10/20 03:38:12;;;;;;;5.95;3.30;;;;;;;14.78;87.92;100362.75;5003701;28;20428;-87
2021/10/20 03:40:37;;;;;;;5.97;3.22;;;;;;;14.79;87.90;100370.69;4984720;28;20045;-89
2021/10/20 03:43:04;;;;;;;6.13;3.35;;;;;;;14.79;87.82;100367.16;4978280;28;20053;-88
2021/10/20 03:45:29;;;;;;;5.65;3.75;;;;;;;14.79;87.84;100356.34;4987085;28;20045;-88
2021/10/20 03:47:55;;;;;;;4.97;3.08;;;;;;;14.78;87.88;100365.47;5001684;28;20050;-89
2021/10/20 03:50:20;;;;;;;7.97;4.53;;;;;;;14.78;87.96;100366.28;5000466;28;20084;-89
2021/10/20 03:52:46;;;;;;;6.85;3.80;;;;;;;14.75;88.47;100368.56;5001447;28;20477;-89
2021/10/20 03:55:13;;;;;;;8.55;3.47;;;;;;;14.74;88.37;100354.25;5003968;28;20099;-85
2021/10/20 03:57:40;;;;;;;7.95;3.92;;;;;;;14.72;88.67;100360.88;5006123;28;20042;-89
2021/10/20 04:00:11;;;;;;;6.70;4.07;;;;;;;14.70;88.86;100355.66;4997784;28;20087;-88
2021/10/20 04:02:36;;;;;;;8.27;4.40;;;;;;;14.69;88.78;100366.69;4985763;28;20180;-88
2021/10/20 04:05:02;;;;;;;6.22;4.22;;;;;;;14.66;89.15;100344.44;4999312;28;20427;-89
2021/10/20 04:07:27;;;;;;;4.63;3.30;;;;;;;14.65;89.25;100334.69;5000652;28;20046;-88
2021/10/20 04:09:53;;;;;;;6.20;3.83;;;;;;;14.63;89.18;100325.94;5005045;28;20050;-89
2021/10/20 04:12:19;;;;;;;5.80;3.60;;;;;;;14.63;89.40;100323.25;4987510;28;20038;-89
2021/10/20 04:14:44;;;;;;;7.72;4.00;;;;;;;14.62;89.56;100313.47;5006157;28;20554;-89
2021/10/20 04:17:10;;;;;;;7.38;4.05;;;;;;;14.60;89.50;100315.53;4993829;28;20045;-88
2021/10/20 04:19:35;;;;;;;9.23;3.95;;;;;;;14.59;89.61;100313.88;4987606;28;20053;-88
2021/10/20 04:22:00;;;;;;;7.03;3.85;;;;;;;14.60;89.52;100317.41;4984052;28;20655;-88
2021/10/20 04:24:26;;;;;;;7.68;4.38;;;;;;;14.59;89.82;100315.75;5003249;28;20567;-89
2021/10/20 04:26:51;;;;;;;6.68;4.20;;;;;;;14.56;89.86;100319.69;4985126;28;20041;-88
2021/10/20 04:29:17;;;;;;;7.55;4.40;;;;;;;14.58;89.97;100323.00;4997717;28;20046;-89
2021/10/20 04:31:43;;;;;;;7.40;4.28;;;;;;;14.57;90.31;100321.34;4985381;28;20100;-88
2021/10/20 04:34:08;;;;;;;6.00;4.40;;;;;;;14.56;90.27;100317.00;4999441;28;20125;-88
2021/10/20 04:36:33;;;;;;;9.55;4.57;;;;;;;14.58;90.38;100316.78;5003916;28;20211;-89
2021/10/20 04:38:59;;;;;;;7.57;3.80;;;;;;;14.54;90.38;100308.25;4990206;28;20428;-89
2021/10/20 04:41:26;;;;;;;9.63;4.72;;;;;;;14.55;90.46;100301.81;4983849;28;20073;-88
2021/10/20 04:43:52;;;;;;;6.75;4.32;;;;;;;14.54;90.49;100300.16;4981915;28;20034;-88
2021/10/20 04:46:17;;;;;;;7.90;4.28;;;;;;;14.55;90.47;100296.41;4984504;28;20042;-88
2021/10/20 04:48:43;;;;;;;8.48;4.38;;;;;;;14.56;90.75;100305.38;4975082;28;20069;-87
2021/10/20 04:51:08;;;;;;;6.50;4.32;;;;;;;14.55;90.72;100291.00;4977065;28;20040;-88
2021/10/20 04:53:34;;;;;;;11.60;4.53;;;;;;;14.54;91.06;100281.25;4977087;28;20169;-88
2021/10/20 04:56:00;;;;;;;7.50;4.70;;;;;;;14.54;90.92;100273.16;5006622;28;20052;-90
2021/10/20 04:58:26;;;;;;;10.55;4.65;;;;;;;14.55;91.04;100274.81;5005865;28;20056;-89
2021/10/20 05:00:52;;;;;;;8.30;4.75;;;;;;;14.55;91.04;100272.13;4988342;28;20030;-89
2021/10/20 05:03:17;;;;;;;7.65;4.72;;;;;;;14.54;90.96;100265.06;4991439;28;20049;-88
2021/10/20 05:05:42;;;;;;;9.23;4.57;;;;;;;14.54;90.96;100265.06;5000082;28;20042;-85
2021/10/20 05:08:08;;;;;;;8.00;4.57;;;;;;;14.50;91.24;100261.09;4989949;28;20041;-88
2021/10/20 05:10:37;;;;;;;7.53;4.70;;;;;;;14.51;91.45;100253.81;5000894;28;20038;-90
2021/10/20 05:13:03;;;;;;;5.43;4.05;;;;;;;14.51;91.49;100245.72;4986200;28;20050;-88
2021/10/20 05:15:28;;;;;;;6.72;4.68;;;;;;;14.50;91.56;100244.88;4990230;28;20095;-89
2021/10/20 05:17:54;;;;;;;5.88;4.30;;;;;;;14.49;91.70;100243.19;4973431;28;20076;-89
2021/10/20 05:20:19;;;;;;;7.45;4.88;;;;;;;14.50;91.64;100244.88;5000813;28;20052;-87
2021/10/20 05:22:45;;;;;;;7.50;4.38;;;;;;;14.51;91.63;100237.59;5005447;28;20570;-89
2021/10/20 05:25:12;;;;;;;7.90;4.78;;;;;;;14.53;91.61;100236.41;4985270;28;20046;-89
2021/10/20 05:27:38;;;;;;;7.25;4.50;;;;;;;14.55;91.61;100228.09;4976162;28;20419;-89
2021/10/20 05:30:05;;;;;;;7.03;4.68;;;;;;;14.57;91.57;100224.16;5003325;28;20045;-89
2021/10/20 05:32:30;;;;;;;7.57;4.50;;;;;;;14.59;91.53;100226.66;4999166;28;20039;-85
2021/10/20 05:34:56;;;;;;;7.40;4.63;;;;;;;14.60;91.57;100215.63;5007039;28;20473;-89
2021/10/20 05:37:22;;;;;;;6.85;4.18;;;;;;;14.61;91.63;100206.50;4989595;28;20408;-88
2021/10/20 05:39:48;;;;;;;7.45;4.30;;;;;;;14.61;91.47;100208.38;4985255;28;20030;-89
2021/10/20 05:42:16;;;;;;;8.45;4.70;;;;;;;14.63;91.65;100198.19;4991525;28;20042;-88
2021/10/20 05:44:42;;;;;;;7.65;4.78;;;;;;;14.63;91.55;100193.63;5002336;28;20697;-88
2021/10/20 05:47:08;;;;;;;7.75;5.35;;;;;;;14.64;91.58;100192.59;5003491;28;20037;-87
2021/10/20 05:49:33;;;;;;;9.73;5.20;;;;;;;14.66;91.48;100190.50;5006578;28;20477;-89
2021/10/20 05:51:58;;;;;;;7.88;5.13;;;;;;;14.68;91.56;100203.00;4987522;28;20040;-90
2021/10/20 05:54:24;;;;;;;7.60;4.65;;;;;;;14.66;91.55;100190.50;4973061;28;20496;-88
2021/10/20 05:56:49;;;;;;;8.52;4.82;;;;;;;14.70;91.26;100198.19;4987593;28;20048;-89
2021/10/20 05:59:20;;;;;;;10.18;4.65;;;;;;;14.70;91.27;100168.50;5000646;28;20407;-89
2021/10/20 06:01:46;;;;;;;8.50;5.30;;;;;;;14.70;91.37;100174.72;5007430;28;20046;-88
2021/10/20 06:04:12;;;;;;;7.15;5.20;;;;;;;14.69;91.46;100162.28;4972525;28;20050;-89
2021/10/20 06:06:37;;;;;;;8.45;5.03;;;;;;;14.69;91.79;100161.44;4991172;28;20034;-88
2021/10/20 06:09:02;;;;;;;8.10;5.00;;;;;;;14.68;91.78;100170.59;5005414;28;20152;-89
2021/10/20 06:11:28;;;;;;;8.68;5.43;;;;;;;14.68;91.64;100163.31;5007137;28;20064;-90
2021/10/20 06:13:53;;;;;;;8.77;5.40;;;;;;;14.67;91.66;100169.72;5004309;28;20404;-90
2021/10/20 06:16:19;;;;;;;13.27;5.78;;;;;;;14.67;91.86;100169.72;5001705;28;20404;-90
2021/10/20 06:18:45;;;;;;;9.15;5.10;;;;;;;14.65;91.92;100164.56;4987491;28;20077;-91
2021/10/20 06:21:11;;;;;;;8.98;5.18;;;;;;;14.65;91.84;100161.84;5006378;28;20180;-89
2021/10/20 06:23:36;;;;;;;8.18;5.15;;;;;;;14.65;91.87;100155.63;4996348;28;20064;-91
2021/10/20 06:26:01;;;;;;;8.30;5.57;;;;;;;14.63;92.03;100144.19;5001645;28;20489;-87
2021/10/20 06:28:27;;;;;;;8.30;5.50;;;;;;;14.63;92.14;100141.50;5006058;28;20060;-88
2021/10/20 06:30:52;;;;;;;7.97;5.00;;;;;;;14.63;92.04;100136.91;4986399;28;20038;-90
2021/10/20 06:33:18;;;;;;;7.78;5.45;;;;;;;14.62;92.14;100132.56;4998420;28;20046;-89
2021/10/20 06:35:43;;;;;;;8.38;5.75;;;;;;;14.62;92.29;100137.16;4994259;28;20037;-89
2021/10/20 06:38:09;;;;;;;9.10;6.00;;;;;;;14.63;92.17;100128.81;4986986;28;20042;-88
2021/10/20 06:40:35;;;;;;;9.32;5.78;;;;;;;14.64;92.19;100125.09;4986453;28;20046;-91
2021/10/20 06:43:00;;;;;;;10.68;6.13;;;;;;;14.66;92.31;100114.09;5000711;28;20069;-90
2021/10/20 06:45:26;;;;;;;9.23;6.15;;;;;;;14.64;92.09;100111.59;4989269;28;20067;-90
2021/10/20 06:47:52;;;;;;;8.05;5.50;;;;;;;14.66;92.18;100109.50;5002728;28;20104;-91
2021/10/20 06:50:20;;;;;;;9.18;5.63;;;;;;;14.65;92.13;100102.44;4998340;28;20069;-87
2021/10/20 06:52:46;;;;;;;9.60;6.07;;;;;;;14.66;91.98;100096.00;5004121;28;20041;-86
2021/10/20 06:55:12;;;;;;;9.07;5.60;;;;;;;14.64;92.20;100106.19;5028106;28;20041;-88
2021/10/20 06:57:39;;;;;;;9.77;5.95;;;;;;;14.64;92.42;100103.50;5016367;28;20050;-86
2021/10/20 07:00:08;;;;;;;9.10;5.50;;;;;;;14.65;92.26;100094.34;5009231;28;21182;-90
2021/10/20 07:02:33;;;;;;;10.27;5.83;;;;;;;14.65;92.38;100093.53;4986096;28;20064;-91
2021/10/20 07:05:00;;;;;;;8.02;5.90;;;;;;;14.64;92.38;100100.81;4989516;28;20497;-89
2021/10/20 07:07:25;;;;;;;9.10;6.00;;;;;;;14.63;92.62;100104.53;4996479;28;20045;-90
2021/10/20 07:09:51;;;;;;;8.68;6.07;;;;;;;14.63;92.71;100103.69;4987020;28;20049;-88
2021/10/20 07:12:16;;;;;;;9.85;6.00;;;;;;;14.65;92.78;100112.44;5003462;28;20041;-90
2021/10/20 07:14:42;;;;;;;10.77;6.03;;;;;;;14.66;92.90;100124.88;4984544;28;20128;-90
2021/10/20 07:17:09;;;;;;;10.77;6.07;;;;;;;14.66;92.68;100131.09;5003202;28;20046;-90
2021/10/20 07:19:36;;;;;;;8.55;6.07;;;;;;;14.70;92.92;100128.81;4983800;28;20046;-86
2021/10/20 07:22:02;;;;;;;9.80;6.03;;;;;;;14.71;93.03;100132.38;4984680;28;20042;-90
2021/10/20 07:24:27;;;;;;;9.10;6.00;;;;;;;14.73;92.89;100114.06;4983049;28;20039;-90
2021/10/20 07:26:53;;;;;;;8.32;5.50;;;;;;;14.74;92.97;100111.19;4980986;28;20401;-89
2021/10/20 07:29:18;;;;;;;11.52;5.75;;;;;;;14.74;93.09;100110.34;5001869;28;20046;-89
2021/10/20 07:31:44;;;;;;;9.02;5.70;;;;;;;14.76;93.10;100102.84;4984517;28;20037;-89
2021/10/20 07:34:09;;;;;;;8.23;5.55;;;;;;;14.76;93.29;100092.03;4984027;28;20034;-89
2021/10/20 07:36:37;;;;;;;10.38;6.20;;;;;;;14.78;93.54;100127.78;4992258;28;20053;-90
2021/10/20 07:39:03;;;;;;;9.30;5.72;;;;;;;14.79;93.67;100134.88;4991258;28;20092;-90
2021/10/20 07:41:28;;;;;;;7.70;5.72;;;;;;;14.80;93.76;100140.03;4984231;28;20030;-90
2021/10/20 07:43:54;;;;;;;10.35;5.95;;;;;;;14.82;93.98;100115.53;5002794;28;20113;-89
2021/10/20 07:46:19;;;;;;;7.72;5.47;;;;;;;14.83;93.94;100120.72;4990087;28;20385;-91
2021/10/20 07:48:44;;;;;;;8.52;5.85;;;;;;;14.87;94.06;100113.03;4987147;28;20519;-89
2021/10/20 07:51:10;;;;;;;9.40;6.28;;;;;;;14.88;94.18;100095.81;5004157;28;20565;-87
2021/10/20 07:53:35;;;;;;;9.23;5.82;;;;;;;14.90;94.38;100096.41;4997774;28;20046;-87
2021/10/20 07:56:01;;;;;;;10.98;5.97;;;;;;;14.91;94.58;100070.25;5000907;28;20145;-88
2021/10/20 07:58:26;;;;;;;9.77;5.50;;;;;;;14.94;94.71;100056.31;4998908;28;20137;-90
2021/10/20 08:00:52;;;;;;;10.68;6.40;;;;;;;14.96;94.79;100071.28;4971674;28;20416;-88
2021/10/20 08:03:17;;;;;;;8.73;6.07;;;;;;;15.02;94.84;100065.03;4999539;28;20038;-87
2021/10/20 08:05:42;;;;;;;8.23;5.60;;;;;;;15.06;94.89;100033.00;4995491;28;20049;-90
2021/10/20 08:08:10;;;;;;;10.63;5.45;;;;;;;15.10;94.86;100005.34;4986162;28;20052;-90
2021/10/20 08:10:36;;;;;;;10.95;5.45;;;;;;;15.16;94.66;100013.63;4994537;28;20077;-88
2021/10/20 08:13:02;;;;;;;8.40;5.90;;;;;;;15.23;94.39;100006.34;5002917;28;20038;-90
2021/10/20 08:15:28;;;;;;;8.85;5.57;;;;;;;15.29;94.27;99989.25;4987104;28;20571;-90
2021/10/20 08:17:56;;;;;;;7.65;5.57;;;;;;;15.33;94.06;100007.56;4987908;28;20136;-90
2021/10/20 08:20:23;;;;;;;8.20;5.88;;;;;;;15.38;94.29;100020.41;5002391;28;20189;-88
2021/10/20 08:22:48;;;;;;;8.57;6.15;;;;;;;15.41;94.55;100011.03;5003686;28;20141;-89
2021/10/20 08:25:15;;;;;;;7.55;5.55;;;;;;;15.44;94.46;99976.28;4979924;28;20042;-88
2021/10/20 08:27:41;;;;;;;9.02;6.15;;;;;;;15.47;95.24;99983.97;5002717;28;20564;-90
2021/10/20 08:30:14;;;;;;;7.72;5.68;;;;;;;15.50;95.87;99985.41;5002721;28;20058;-89
2021/10/20 08:32:40;;;;;;;10.82;5.78;;;;;;;15.50;95.86;99953.78;4985635;28;20053;-89
2021/10/20 08:35:06;;;;;;;9.85;6.05;;;;;;;15.54;95.87;99955.03;5000813;28;20064;-89
2021/10/20 08:37:32;;;;;;;10.15;6.43;;;;;;;15.57;95.89;99919.44;4987058;28;20642;-90
2021/10/20 08:39:57;;;;;;;12.05;6.57;;;;;;;15.62;96.04;99912.53;4980587;28;20042;-90
2021/10/20 08:42:23;;;;;;;8.23;5.82;;;;;;;15.64;95.82;99922.09;5001580;28;20046;-89
2021/10/20 08:44:48;;;;;;;8.32;5.78;;;;;;;15.68;95.90;99912.53;4999330;28;20054;-88
2021/10/20 08:47:15;;;;;;;12.07;6.88;;;;;;;15.71;95.74;99895.06;4985655;28;20062;-87
2021/10/20 08:49:42;;;;;;;9.02;6.07;;;;;;;15.75;95.70;99916.03;4989353;28;20045;-90
2021/10/20 08:52:10;;;;;;;9.32;5.82;;;;;;;15.79;95.49;99935.34;5000313;28;20137;-91
2021/10/20 08:54:36;;;;;;;8.25;6.20;;;;;;;15.84;95.41;99932.81;5004622;28;20045;-87
2021/10/20 08:57:03;;;;;;;9.85;6.50;;;;;;;15.87;95.08;99929.66;5000125;28;20121;-90
2021/10/20 08:59:32;;;;;;;10.00;6.90;;;;;;;15.89;95.00;99930.28;4985541;28;20053;-90
2021/10/20 09:02:02;;;;;;;9.60;6.30;;;;;;;15.91;94.86;99936.31;5003709;28;20049;-91
2021/10/20 09:04:29;;;;;;;9.82;7.03;;;;;;;15.92;95.21;99934.44;4984879;28;20137;-91
2021/10/20 09:06:58;;;;;;;9.15;6.53;;;;;;;15.92;95.37;99934.44;5000826;28;20046;-89
2021/10/20 09:09:31;;;;;;;11.05;6.95;;;;;;;15.93;94.97;99931.47;5001352;28;20053;-90
2021/10/20 09:11:57;;;;;;;9.98;7.35;;;;;;;15.95;95.05;99929.41;4986567;28;20651;-90
2021/10/20 09:14:23;;;;;;;10.45;7.13;;;;;;;15.95;95.84;99921.28;4997343;28;20053;-88
2021/10/20 09:16:49;;;;;;;11.82;6.78;;;;;;;15.96;96.08;99925.63;5001042;28;20050;-88
2021/10/20 09:19:30;;;;;;;9.10;6.88;;;;;;;16.00;96.42;99924.16;5003654;28;20042;-88
2021/10/20 09:22:04;;;;;;;11.55;7.25;;;;;;;16.03;95.93;99931.00;4991209;28;20057;-88
2021/10/20 09:24:42;;;;;;;9.52;6.55;;;;;;;16.04;95.48;99921.00;4984573;28;20041;-88
2021/10/20 09:27:29;;;;;;;9.10;7.13;;;;;;;16.07;95.40;99920.56;5000961;28;20518;-87
2021/10/20 09:30:12;;;;;;;9.60;7.30;;;;;;;16.08;95.87;99935.75;4984718;28;20050;-88
2021/10/20 09:32:38;;;;;;;10.98;7.03;;;;;;;16.06;96.94;99919.75;4964310;28;20038;-88
2021/10/20 09:35:04;;;;;;;9.48;7.22;;;;;;;16.02;97.91;99919.34;5002822;28;20124;-88
2021/10/20 09:37:30;;;;;;;10.38;7.55;;;;;;;15.99;98.77;99910.84;4987828;28;21097;-88
2021/10/20 09:40:07;;;;;;;9.75;7.68;;;;;;;15.97;99.61;99921.91;5005654;28;20049;-88
2021/10/20 09:42:53;;;;;;;9.35;7.07;;;;;;;15.96;100.00;99909.41;5022018;28;20053;-88
2021/10/20 09:45:21;;;;;;;11.65;8.40;;;;;;;15.94;100.00;99902.53;4985709;28;20057;-88
2021/10/20 09:47:47;;;;;;;11.85;8.15;;;;;;;15.94;100.00;99902.53;4991152;28;20037;-87
2021/10/20 09:50:13;;;;;;;10.55;7.50;;;;;;;15.91;100.00;99893.03;5005883;28;20054;-88
2021/10/20 09:52:50;;;;;;;9.15;7.10;;;;;;;15.92;100.00;99891.97;4990031;28;20408;-88
2021/10/20 09:55:28;;;;;;;9.55;7.00;;;;;;;15.92;100.00;99886.53;4986699;28;20074;-88
2021/10/20 09:58:15;;;;;;;11.95;7.55;;;;;;;15.94;100.00;99889.00;5004764;28;20040;-88
2021/10/20 10:00:42;;;;;;;9.43;6.57;;;;;;;15.95;100.00;99877.97;4949168;28;20045;-87
2021/10/20 10:03:09;;;;;;;10.43;7.35;;;;;;;15.99;100.00;99887.31;4984628;28;20058;-88
2021/10/20 10:05:34;;;;;;;11.88;8.02;;;;;;;16.04;100.00;99883.13;4995496;28;20077;-88
2021/10/20 10:08:00;;;;;;;9.30;6.88;;;;;;;16.09;100.00;99875.16;4981486;28;20066;-88
2021/10/20 10:10:27;;;;;;;10.77;7.03;;;;;;;16.13;99.55;99887.19;5001728;28;20504;-87
2021/10/20 10:12:54;;;;;;;10.85;6.90;;;;;;;16.16;98.52;99889.44;4986001;28;20041;-87
2021/10/20 10:15:21;;;;;;;9.00;6.60;;;;;;;16.22;98.00;99897.50;4989114;28;20068;-88
2021/10/20 10:17:50;;;;;;;12.18;7.05;;;;;;;16.28;97.49;99895.78;5004364;28;20042;-88
2021/10/20 10:20:16;;;;;;;11.93;7.38;;;;;;;16.35;96.79;99891.16;5004902;28;20044;-87
2021/10/20 10:22:52;;;;;;;10.18;7.00;;;;;;;16.45;96.21;99894.16;5003423;28;20045;-88
2021/10/20 10:25:30;;;;;;;11.07;7.05;;;;;;;16.50;94.67;99903.50;5012136;28;20098;-87
2021/10/20 10:28:19;;;;;;;8.60;6.40;;;;;;;16.53;94.48;99875.97;5030780;28;20053;-86
2021/10/20 10:31:16;;;;;;;8.93;6.32;;;;;;;16.55;94.04;99899.06;4956179;28;20069;-88
2021/10/20 10:33:53;;;;;;;8.07;6.03;;;;;;;16.58;93.83;99900.50;4962786;28;20181;-88
2021/10/20 10:36:22;;;;;;;9.95;6.50;;;;;;;16.61;93.08;99890.03;5003423;28;20088;-88
2021/10/20 10:39:00;;;;;;;11.05;6.82;;;;;;;16.66;92.37;99892.06;4988018;28;20042;-87
2021/10/20 10:41:27;;;;;;;10.85;6.50;;;;;;;16.69;91.68;99910.59;4999501;28;20079;-88
2021/10/20 10:44:06;;;;;;;8.73;6.65;;;;;;;16.73;91.56;99898.22;4985282;28;20130;-88
2021/10/20 10:46:59;;;;;;;12.70;6.63;;;;;;;16.77;91.31;99899.44;4986552;28;20050;-87
2021/10/20 10:49:28;;;;;;;10.40;6.82;;;;;;;16.76;90.54;99913.22;4984163;28;20088;-88
2021/10/20 10:52:20;;;;;;;8.77;6.55;;;;;;;16.77;90.52;99910.28;4984119;28;20046;-88
2021/10/20 10:54:53;;;;;;;10.07;6.47;;;;;;;16.80;90.66;99898.16;4973235;28;20621;-88
2021/10/20 10:57:18;;;;;;;7.72;6.43;;;;;;;16.78;90.50;99901.13;5000565;28;20049;-88
2021/10/20 11:00:04;;;;;;;10.65;6.07;;;;;;;16.78;90.32;99906.53;4985581;28;20042;-88
2021/10/20 11:02:51;;;;;;;9.10;6.38;;;;;;;16.81;90.48;99900.66;4982031;28;20046;-87
2021/10/20 11:05:20;;;;;;;8.88;6.55;;;;;;;16.78;90.49;99895.72;5003148;28;20065;-88
2021/10/20 11:07:47;;;;;;;11.05;6.95;;;;;;;16.77;90.24;99882.38;5006330;28;20116;-88
2021/10/20 11:10:15;;;;;;;7.72;6.40;;;;;;;16.78;90.51;99889.47;5000234;28;20144;-88
2021/10/20 11:12:43;;;;;;;8.20;5.95;;;;;;;16.78;90.44;99884.88;5003794;28;20412;-88
2021/10/20 11:15:12;;;;;;;10.70;6.85;;;;;;;16.76;90.16;99903.22;4990191;28;20496;-88
2021/10/20 11:17:38;;;;;;;10.23;6.65;;;;;;;16.77;89.88;99882.38;5003973;28;20042;-88
2021/10/20 11:20:06;;;;;;;10.43;7.20;;;;;;;16.78;90.26;99881.34;4986851;28;20381;-88
2021/10/20 11:22:32;;;;;;;10.48;6.25;;;;;;;16.77;90.30;99876.94;5003312;28;20096;-88
2021/10/20 11:24:59;;;;;;;9.05;6.63;;;;;;;16.77;89.92;99874.25;4987692;28;20467;-88
2021/10/20 11:27:24;;;;;;;10.85;6.32;;;;;;;16.77;90.00;99866.13;5000787;28;20863;-88